Atlantic - Newfoundland: Past 24 Hour Conditions

 

J.A. Douglas McCurdy Sydney Airport

04:00 PM AST 27 November 2014
This table is a summary of hourly weather conditions for the past 24 hours.
Date / Time
(AST)
Wind(knots) Conditions Visibility(km) Pressure(kPa) Air tempC) Relative humidity(%) Dew pointC)
27 November 2014
16:00 WSW 20 gust 29 Mostly Cloudy 16 99.3 7 89 5
15:00 SW 17 gust 26 Light Drizzle 6 99.1 9 94 8
14:00 SW 19 gust 28 Light Rain 6 99.0 10 93 9
13:00 SW 18 gust 25 Light Rain 4 99.0 10 95 10
12:00 W 6 Light Rain 2 99.2 5 98 5
11:00 W 6 Light Rain 2 99.2 5 98 5
10:00 NNW 4 Light Rain 1 99.4 5 98 5
9:00 NE 13 gust 18 Light Rain 5 99.7 4 97 4
8:00 NE 14 gust 21 Rain 2 100.0 4 97 3
7:00 NE 18 gust 29 Light Rain 6 100.3 3 96 3
6:00 ENE 17 gust 27 Rain 3 100.4 3 97 3
5:00 ENE 11 gust 21 Rain 6 100.8 3 96 3
4:00 E 21 gust 27 Rain 8 100.7 3 97 3
3:00 E 15 gust 24 Rain 6 101.2 3 97 2
2:00 ENE 17 gust 22 Rain 8 101.4 2 96 2
1:00 ENE 14 gust 19 Light Rain 8 101.7 2 96 1
0:00 ENE 10 Light Rain 6 101.8 2 97 2
26 November 2014
23:00 NE 7 Light Rain 8 101.9 2 96 1
22:00 NE 8 Light Rain 13 102.0 2 94 1
21:00 NNE 8 Light Rain 24 102.1 3 89 1
20:00 NNW 4 Light Rain 16 102.3 4 74 0
19:00 ENE 2 Cloudy 24 102.2 5 68 -1
18:00 NNW 4 Mostly Cloudy 24 102.3 5 64 -1
17:00 N 1 Cloudy 24 102.3 5 59 -2
16:00 NNW 6 Cloudy 24 102.2 6 55 -3
 
Map of Atlantic - Newfoundland marine weather areas Southwestern Grand Banks - 44138 Banquereau - 44139 Tail of the Bank - 44140 Nickerson Bank - 44251 Northeast Burgeo Bank - 44255 Blanc-Sablon Airport Cap Whittle Chevery Natashquan Airport Heath Point Miscou Island Grand Étang Ingonish Beach North Mountain St.Paul Island J.A. Douglas McCurdy Sydney Airport Charlottetown Airport East Point North Cape Argentia Bonavista Burgeo Cape Race Corner Brook Daniel's Harbour Englee Ferolle Point La Scie Port aux Basques Rocky Harbour Sagona Island St. Anthony Airport St. John's Int'l Airport St. Lawrence Stephenville Airport Twillingate Winterland Wreckhouse Cartwright Airport Mary's Harbour Grates Cove Pool's Island Marticot Island Long Pond Îles de la Madeleine Airport
Legend: buoyBuoy land stationLand Station